Time;durP1;ratioP1;P1;durP2;ratioP2;P2;SDS_P1;SDS_P2;PMS_P1;PMS_P2;Temp;Humidity;BMP_temperature;BMP_pressure;BME280_temperature;BME280_humidity;BME280_pressure;Samples;Min_cycle;Max_cycle;Signal;HPM_P1;HPM_P2
2023/06/05 00:01:57;;;;;;;1.83;1.20;;;14.50;83.80;;;;;;4195249;28;20253;-78
2023/06/05 00:03:59;;;;;;;1.60;1.03;;;14.40;81.00;;;;;;4196504;28;20314;-76
2023/06/05 00:06:00;;;;;;;2.20;1.40;;;14.40;79.10;;;;;;4190477;28;20234;-78
2023/06/05 00:08:02;;;;;;;1.43;1.27;;;14.40;78.00;;;;;;4195907;28;20298;-78
2023/06/05 00:10:06;;;;;;;1.63;1.33;;;14.40;79.10;;;;;;4196228;28;20249;-78
2023/06/05 00:12:09;;;;;;;3.07;1.47;;;14.40;77.70;;;;;;4188492;28;20228;-78
2023/06/05 00:14:11;;;;;;;1.80;1.10;;;14.40;78.60;;;;;;4196146;28;20294;-78
2023/06/05 00:16:12;;;;;;;2.40;1.10;;;14.30;81.20;;;;;;4194720;28;20211;-78
2023/06/05 00:18:17;;;;;;;2.83;1.30;;;14.30;81.60;;;;;;4195078;28;20663;-78
2023/06/05 00:20:19;;;;;;;1.90;1.30;;;14.30;80.70;;;;;;4194831;28;20210;-77
2023/06/05 00:22:21;;;;;;;1.60;1.20;;;14.30;80.40;;;;;;4195855;28;20302;-77
2023/06/05 00:24:23;;;;;;;1.93;1.20;;;14.20;79.50;;;;;;4196061;28;20708;-78
2023/06/05 00:26:26;;;;;;;1.60;1.27;;;14.20;81.20;;;;;;4195720;28;20213;-78
2023/06/05 00:28:28;;;;;;;1.87;1.20;;;14.20;79.70;;;;;;4194644;28;20207;-78
2023/06/05 00:30:32;;;;;;;2.13;1.10;;;14.10;80.20;;;;;;4195998;28;20311;-77
2023/06/05 00:32:34;;;;;;;1.30;1.10;;;14.10;80.70;;;;;;4196144;28;20320;-77
2023/06/05 00:34:37;;;;;;;1.70;1.20;;;14.10;82.90;;;;;;4195829;28;20203;-78
2023/06/05 00:36:40;;;;;;;2.87;1.10;;;14.10;83.90;;;;;;4192217;28;20577;-77
2023/06/05 00:38:42;;;;;;;1.37;1.00;;;14.10;89.60;;;;;;4193061;28;20215;-78
2023/06/05 00:40:44;;;;;;;3.20;1.10;;;14.10;88.70;;;;;;4194292;28;20312;-78
2023/06/05 00:42:46;;;;;;;1.50;1.07;;;14.00;90.20;;;;;;4193522;28;20284;-78
2023/06/05 00:44:48;;;;;;;2.17;1.30;;;14.00;90.10;;;;;;4193765;28;20320;-79
2023/06/05 00:46:51;;;;;;;2.93;1.40;;;14.00;90.00;;;;;;4195082;28;20211;-79
2023/06/05 00:48:53;;;;;;;1.53;1.00;;;14.00;91.70;;;;;;4193054;28;20296;-79
2023/06/05 00:50:57;;;;;;;1.47;1.17;;;13.90;92.20;;;;;;4195467;28;20214;-78
2023/06/05 00:52:59;;;;;;;2.20;1.20;;;13.90;92.40;;;;;;4194413;28;20230;-78
2023/06/05 00:55:02;;;;;;;2.13;1.20;;;13.90;93.00;;;;;;4194810;28;20921;-78
2023/06/05 00:57:06;;;;;;;3.13;1.37;;;13.90;92.40;;;;;;4194521;28;20252;-78
2023/06/05 00:59:09;;;;;;;2.53;1.10;;;13.90;93.80;;;;;;4192108;28;20215;-78
2023/06/05 01:01:12;;;;;;;2.03;1.23;;;13.80;93.10;;;;;;4194345;28;20310;-78
2023/06/05 01:03:14;;;;;;;1.70;1.07;;;13.80;92.60;;;;;;4190804;28;20245;-78
2023/06/05 01:05:17;;;;;;;1.00;0.90;;;13.80;92.30;;;;;;4195287;28;20238;-76
2023/06/05 01:07:21;;;;;;;1.77;1.10;;;13.80;91.70;;;;;;4191559;28;20206;-78
2023/06/05 01:09:23;;;;;;;2.03;1.20;;;13.70;93.70;;;;;;4193859;28;20213;-77
2023/06/05 01:11:32;;;;;;;1.57;1.07;;;13.70;93.90;;;;;;4191718;28;20215;-78
2023/06/05 01:13:36;;;;;;;1.60;1.07;;;13.70;95.80;;;;;;4195613;28;20232;-78
2023/06/05 01:15:39;;;;;;;1.40;1.03;;;13.70;97.00;;;;;;4189854;28;20928;-78
2023/06/05 01:17:47;;;;;;;1.90;1.10;;;13.60;95.80;;;;;;4187954;28;20306;-78
2023/06/05 01:19:49;;;;;;;1.97;1.17;;;13.60;95.90;;;;;;4191695;28;20271;-78
2023/06/05 01:21:51;;;;;;;1.70;1.20;;;13.70;95.90;;;;;;4193403;28;20567;-78
2023/06/05 01:23:55;;;;;;;2.43;1.20;;;13.60;96.60;;;;;;4195142;28;20317;-78
2023/06/05 01:26:00;;;;;;;1.50;1.00;;;13.60;98.10;;;;;;4183459;28;20617;-79
2023/06/05 01:28:09;;;;;;;1.83;1.20;;;13.60;98.60;;;;;;4195033;28;20220;-78
2023/06/05 01:30:16;;;;;;;1.93;1.30;;;13.60;97.90;;;;;;4192777;28;20293;-78
2023/06/05 01:32:25;;;;;;;2.13;1.20;;;13.50;98.90;;;;;;4192726;28;20228;-78
2023/06/05 01:34:29;;;;;;;1.20;1.00;;;13.50;99.90;;;;;;4192604;28;20209;-78
2023/06/05 01:36:32;;;;;;;2.23;1.30;;;13.50;99.60;;;;;;4189274;28;20248;-78
2023/06/05 01:38:35;;;;;;;2.80;1.20;;;13.50;98.60;;;;;;4193597;28;20218;-77
2023/06/05 01:40:39;;;;;;;1.70;1.10;;;13.40;98.20;;;;;;4191830;28;20234;-78
2023/06/05 01:42:42;;;;;;;1.30;1.00;;;13.40;99.70;;;;;;4189469;28;20701;-78
2023/06/05 01:44:46;;;;;;;2.70;1.30;;;13.40;99.90;;;;;;4194266;28;20237;-78
2023/06/05 01:46:50;;;;;;;1.87;1.13;;;13.40;99.90;;;;;;4194421;28;20580;-78
2023/06/05 01:48:52;;;;;;;1.40;1.07;;;13.40;99.90;;;;;;4191738;28;20217;-78
2023/06/05 01:50:57;;;;;;;1.93;1.30;;;13.30;99.90;;;;;;4186359;28;20749;-78
2023/06/05 01:53:00;;;;;;;2.00;1.20;;;13.30;99.90;;;;;;4195326;28;20229;-78
2023/06/05 01:55:03;;;;;;;1.53;1.10;;;13.30;99.90;;;;;;4193285;28;20202;-78
2023/06/05 01:57:07;;;;;;;1.80;1.20;;;13.30;99.90;;;;;;4191060;28;20880;-77
2023/06/05 01:59:09;;;;;;;2.07;1.30;;;13.30;99.90;;;;;;4195338;28;20210;-78
2023/06/05 02:01:10;;;;;;;2.17;1.40;;;13.30;99.90;;;;;;4194436;28;20197;-79
2023/06/05 02:03:15;;;;;;;2.00;1.37;;;13.20;99.90;;;;;;4193234;28;20229;-79
2023/06/05 02:05:19;;;;;;;2.00;1.27;;;13.20;99.90;;;;;;4195273;28;20210;-78
2023/06/05 02:07:22;;;;;;;1.27;1.00;;;13.20;99.90;;;;;;4187365;28;20237;-78
2023/06/05 02:09:23;;;;;;;3.50;1.60;;;13.20;99.90;;;;;;4195452;28;20553;-78
2023/06/05 02:11:26;;;;;;;3.63;1.50;;;13.10;99.90;;;;;;4194651;28;20305;-78
2023/06/05 02:13:29;;;;;;;2.43;1.40;;;13.20;99.90;;;;;;4192746;28;20237;-78
2023/06/05 02:15:32;;;;;;;2.10;1.43;;;13.10;99.90;;;;;;4196350;28;20288;-78
2023/06/05 02:17:35;;;;;;;1.80;1.17;;;13.10;99.90;;;;;;4195950;28;20205;-78
2023/06/05 02:19:36;;;;;;;1.80;1.30;;;13.10;99.90;;;;;;4198025;28;20213;-78
2023/06/05 02:21:38;;;;;;;1.73;1.30;;;13.00;99.90;;;;;;4196606;28;20324;-78
2023/06/05 02:23:40;;;;;;;1.70;1.23;;;13.00;99.90;;;;;;4197880;28;20258;-77
2023/06/05 02:25:42;;;;;;;2.50;1.40;;;13.00;99.90;;;;;;4197814;28;20551;-78
2023/06/05 02:27:44;;;;;;;2.27;1.33;;;13.00;99.90;;;;;;4197087;28;20245;-78
2023/06/05 02:29:47;;;;;;;2.03;1.23;;;12.90;99.90;;;;;;4197621;28;20818;-78
2023/06/05 02:31:49;;;;;;;1.80;1.20;;;13.00;99.90;;;;;;4194708;28;20210;-78
2023/06/05 02:33:52;;;;;;;2.70;1.40;;;12.90;99.90;;;;;;4193852;28;20218;-78
2023/06/05 02:35:56;;;;;;;1.67;1.20;;;12.90;99.90;;;;;;4196146;28;20213;-78
2023/06/05 02:37:58;;;;;;;2.63;1.30;;;12.90;99.90;;;;;;4197325;28;20267;-78
2023/06/05 02:40:00;;;;;;;2.27;1.40;;;12.90;99.90;;;;;;4195702;28;20317;-78
2023/06/05 02:42:02;;;;;;;1.80;1.40;;;12.90;99.90;;;;;;4197504;28;20209;-78
2023/06/05 02:44:03;;;;;;;2.43;1.40;;;12.80;99.90;;;;;;4193478;28;21071;-78
2023/06/05 02:46:07;;;;;;;2.27;1.47;;;12.80;99.90;;;;;;4189241;28;20297;-78
2023/06/05 02:48:09;;;;;;;2.13;1.47;;;12.80;99.90;;;;;;4192833;28;20263;-78
2023/06/05 02:50:11;;;;;;;3.07;1.80;;;12.80;99.90;;;;;;4196389;28;20590;-78
2023/06/05 02:52:12;;;;;;;1.90;1.50;;;12.80;99.90;;;;;;4197150;28;20571;-78
2023/06/05 02:54:14;;;;;;;2.00;1.40;;;12.70;99.90;;;;;;4197770;28;20570;-78
2023/06/05 02:56:16;;;;;;;1.70;1.17;;;12.70;99.90;;;;;;4197093;28;20312;-78
2023/06/05 02:58:19;;;;;;;2.93;1.80;;;12.70;99.90;;;;;;4197258;28;20710;-79
2023/06/05 03:00:21;;;;;;;1.67;1.23;;;12.70;99.90;;;;;;4195492;28;20304;-77
2023/06/05 03:02:27;;;;;;;1.87;1.47;;;12.60;99.90;;;;;;4189909;28;20291;-77
2023/06/05 03:04:30;;;;;;;5.03;1.33;;;12.60;99.90;;;;;;4193543;28;20670;-77
2023/06/05 03:06:35;;;;;;;2.13;1.50;;;12.60;99.90;;;;;;4195401;28;20207;-78
2023/06/05 03:08:37;;;;;;;3.40;1.53;;;12.60;99.90;;;;;;4197232;28;20213;-77
2023/06/05 03:10:39;;;;;;;3.33;1.50;;;12.60;99.90;;;;;;4187777;28;20297;-78
2023/06/05 03:12:41;;;;;;;2.33;1.70;;;12.60;99.90;;;;;;4194518;28;20316;-78
2023/06/05 03:14:43;;;;;;;2.53;1.53;;;12.60;99.90;;;;;;4194296;28;20292;-77
2023/06/05 03:16:45;;;;;;;3.57;1.70;;;12.50;99.90;;;;;;4194310;28;20210;-78
2023/06/05 03:18:48;;;;;;;2.40;1.60;;;12.50;99.90;;;;;;4194585;28;20566;-77
2023/06/05 03:20:51;;;;;;;3.07;1.57;;;12.50;99.90;;;;;;4197040;28;20263;-77
2023/06/05 03:22:53;;;;;;;1.83;1.50;;;12.50;99.90;;;;;;4191830;28;20233;-77
2023/06/05 03:24:55;;;;;;;2.33;1.40;;;12.60;99.90;;;;;;4195225;28;20221;-77
2023/06/05 03:26:57;;;;;;;2.67;1.73;;;12.50;99.90;;;;;;4196138;28;20220;-77
2023/06/05 03:28:58;;;;;;;2.10;1.60;;;12.50;99.90;;;;;;4190893;28;20217;-77
2023/06/05 03:31:03;;;;;;;1.77;1.27;;;12.40;99.90;;;;;;4193440;28;20201;-76
2023/06/05 03:33:07;;;;;;;2.57;1.50;;;12.40;99.90;;;;;;4194489;28;20603;-76
2023/06/05 03:35:10;;;;;;;1.90;1.53;;;12.40;99.90;;;;;;4193651;28;20197;-76
2023/06/05 03:37:12;;;;;;;4.43;1.47;;;12.40;99.90;;;;;;4193799;28;20210;-76
2023/06/05 03:39:14;;;;;;;3.37;1.60;;;12.30;99.90;;;;;;4195634;28;20240;-76
2023/06/05 03:41:16;;;;;;;2.20;1.47;;;12.30;99.90;;;;;;4196593;28;20217;-76
2023/06/05 03:43:17;;;;;;;3.30;1.67;;;12.30;99.90;;;;;;4195810;28;20331;-76
2023/06/05 03:45:19;;;;;;;2.30;1.70;;;12.30;99.90;;;;;;4196329;28;20321;-76
2023/06/05 03:47:21;;;;;;;3.37;1.40;;;12.30;99.90;;;;;;4194622;28;20227;-76
2023/06/05 03:49:25;;;;;;;2.00;1.77;;;12.30;99.90;;;;;;4196184;28;20303;-76
2023/06/05 03:51:30;;;;;;;2.73;1.30;;;12.30;99.90;;;;;;4193180;28;20658;-76
2023/06/05 03:53:34;;;;;;;3.10;1.57;;;12.30;99.90;;;;;;4194901;28;20270;-75
2023/06/05 03:55:41;;;;;;;2.37;1.60;;;12.20;99.90;;;;;;4195925;28;20694;-75
2023/06/05 03:57:43;;;;;;;3.37;1.83;;;12.30;99.90;;;;;;4194603;28;20235;-76
2023/06/05 03:59:46;;;;;;;3.30;1.83;;;12.20;99.90;;;;;;4195025;28;20307;-76
2023/06/05 04:01:48;;;;;;;4.13;1.63;;;12.20;99.90;;;;;;4194975;28;20232;-76
2023/06/05 04:03:50;;;;;;;3.47;1.97;;;12.20;99.90;;;;;;4195830;28;20915;-76
2023/06/05 04:05:52;;;;;;;3.17;1.80;;;12.20;99.90;;;;;;4193365;28;20970;-76
2023/06/05 04:07:56;;;;;;;5.83;2.03;;;12.20;99.90;;;;;;4195037;28;20239;-77
2023/06/05 04:09:57;;;;;;;3.53;2.00;;;12.50;99.90;;;;;;4190767;28;20201;-76
2023/06/05 04:11:59;;;;;;;3.93;1.83;;;12.20;99.90;;;;;;4195488;28;20269;-75
2023/06/05 04:14:01;;;;;;;3.30;1.97;;;12.20;99.90;;;;;;4195627;28;20235;-76
2023/06/05 04:16:03;;;;;;;4.60;2.10;;;12.20;99.90;;;;;;4195202;28;20312;-76
2023/06/05 04:18:05;;;;;;;3.90;1.87;;;12.20;99.90;;;;;;4195585;28;20240;-76
2023/06/05 04:20:14;;;;;;;2.47;1.83;;;12.10;99.90;;;;;;4192103;28;20237;-76
2023/06/05 04:22:16;;;;;;;4.30;2.00;;;12.10;99.90;;;;;;4195435;28;20235;-75
2023/06/05 04:24:19;;;;;;;4.33;1.93;;;12.10;99.90;;;;;;4195271;28;20200;-75
2023/06/05 04:26:21;;;;;;;7.03;2.13;;;12.00;99.90;;;;;;4193911;28;20325;-76
2023/06/05 04:28:23;;;;;;;4.73;2.10;;;12.00;99.90;;;;;;4194098;28;20218;-76
2023/06/05 04:30:25;;;;;;;4.43;2.27;;;12.00;99.90;;;;;;4194712;28;20762;-76
2023/06/05 04:32:27;;;;;;;3.20;1.80;;;12.00;99.90;;;;;;4194320;28;20986;-76
2023/06/05 04:34:29;;;;;;;3.10;1.83;;;11.90;99.90;;;;;;4195069;28;20245;-76
2023/06/05 04:36:31;;;;;;;3.13;1.90;;;11.90;99.90;;;;;;4194692;28;20319;-76
2023/06/05 04:38:33;;;;;;;3.93;1.90;;;11.90;99.90;;;;;;4195108;28;20250;-76
2023/06/05 04:40:37;;;;;;;3.20;1.70;;;11.90;99.90;;;;;;4192039;28;20235;-76
2023/06/05 04:42:41;;;;;;;4.37;1.90;;;11.90;99.90;;;;;;4194823;28;20339;-76
2023/06/05 04:44:45;;;;;;;2.87;1.93;;;11.80;99.90;;;;;;4195639;28;20714;-76
2023/06/05 04:46:47;;;;;;;2.33;1.80;;;11.80;99.90;;;;;;4193511;28;20223;-76
2023/06/05 04:48:50;;;;;;;3.00;1.67;;;11.80;99.90;;;;;;4194124;28;20761;-76
2023/06/05 04:50:53;;;;;;;3.30;1.90;;;11.80;99.90;;;;;;4188105;28;20212;-77
2023/06/05 04:52:55;;;;;;;2.53;2.00;;;11.80;99.90;;;;;;4191867;28;20833;-76
2023/06/05 04:54:57;;;;;;;2.70;1.90;;;11.80;99.90;;;;;;4194996;28;20717;-77
2023/06/05 04:57:01;;;;;;;3.07;1.70;;;11.80;99.90;;;;;;4195398;28;20307;-76
2023/06/05 04:59:03;;;;;;;4.77;1.97;;;11.80;99.90;;;;;;4195856;28;20290;-76
2023/06/05 05:01:06;;;;;;;5.27;2.33;;;11.80;99.90;;;;;;4195524;28;20220;-76
2023/06/05 05:03:09;;;;;;;4.93;2.60;;;11.80;99.90;;;;;;4195104;28;20285;-76
2023/06/05 05:05:13;;;;;;;3.97;2.30;;;11.80;99.90;;;;;;4191707;28;20229;-76
2023/06/05 05:07:16;;;;;;;3.40;2.33;;;11.80;99.90;;;;;;4194286;28;20212;-76
2023/06/05 05:09:18;;;;;;;3.27;2.10;;;11.90;99.90;;;;;;4191862;28;20220;-76
2023/06/05 05:11:20;;;;;;;4.20;2.17;;;11.90;99.90;;;;;;4189655;28;20580;-76
2023/06/05 05:13:25;;;;;;;5.07;2.00;;;11.90;99.90;;;;;;4193950;28;20277;-76
2023/06/05 05:15:27;;;;;;;3.50;1.93;;;11.90;99.90;;;;;;4192791;28;20227;-76
2023/06/05 05:17:29;;;;;;;3.43;1.97;;;11.90;99.90;;;;;;4190604;28;20320;-76
2023/06/05 05:19:31;;;;;;;3.13;2.10;;;12.00;99.90;;;;;;4195312;28;20251;-76
2023/06/05 05:21:33;;;;;;;3.37;1.97;;;12.00;99.90;;;;;;4195155;28;20242;-76
2023/06/05 05:23:34;;;;;;;4.00;1.93;;;12.00;99.90;;;;;;4195128;28;20256;-76
2023/06/05 05:25:38;;;;;;;3.20;1.80;;;12.00;99.90;;;;;;4193860;28;20320;-75
2023/06/05 05:27:40;;;;;;;2.57;1.93;;;12.10;99.90;;;;;;4191342;28;21023;-76
2023/06/05 05:29:43;;;;;;;2.27;1.60;;;12.10;99.90;;;;;;4185853;28;20587;-75
2023/06/05 05:31:45;;;;;;;3.03;1.80;;;12.10;99.90;;;;;;4192506;28;20216;-75
2023/06/05 05:33:47;;;;;;;4.00;1.90;;;12.20;99.90;;;;;;4186895;28;20237;-76
2023/06/05 05:35:50;;;;;;;2.47;1.80;;;12.20;99.90;;;;;;4190018;28;20208;-76
2023/06/05 05:37:52;;;;;;;3.70;2.03;;;12.20;99.90;;;;;;4192134;28;20236;-76
2023/06/05 05:39:54;;;;;;;3.10;1.80;;;12.30;99.90;;;;;;4190631;28;20587;-76
2023/06/05 05:41:56;;;;;;;3.10;1.73;;;12.40;99.90;;;;;;4181187;28;20220;-77
2023/06/05 05:43:57;;;;;;;4.43;1.73;;;12.40;99.90;;;;;;4186007;28;20304;-76
2023/06/05 05:46:01;;;;;;;3.60;2.07;;;12.40;99.90;;;;;;4193707;28;20239;-75
2023/06/05 05:48:03;;;;;;;4.40;1.83;;;12.50;99.90;;;;;;4195487;28;20514;-75
2023/06/05 05:50:06;;;;;;;3.83;2.10;;;12.50;99.90;;;;;;4194526;28;20213;-75
2023/06/05 05:52:08;;;;;;;3.03;1.90;;;12.60;99.90;;;;;;4195798;28;20219;-75
2023/06/05 05:54:10;;;;;;;3.87;2.00;;;12.60;99.90;;;;;;4197725;28;20213;-75
2023/06/05 05:56:12;;;;;;;3.87;1.93;;;12.70;99.90;;;;;;4197934;28;20293;-75
2023/06/05 05:58:15;;;;;;;2.40;1.70;;;12.70;99.90;;;;;;4197002;28;20216;-76
2023/06/05 06:00:18;;;;;;;4.60;2.10;;;12.80;99.90;;;;;;4197820;28;20267;-75
2023/06/05 06:02:21;;;;;;;3.97;1.90;;;12.80;99.90;;;;;;4192274;28;20244;-75
2023/06/05 06:04:23;;;;;;;3.70;2.10;;;12.90;99.90;;;;;;4196404;28;20248;-75
2023/06/05 06:06:25;;;;;;;3.33;1.90;;;12.90;99.90;;;;;;4194121;28;20230;-75
2023/06/05 06:08:27;;;;;;;3.70;1.80;;;13.00;99.90;;;;;;4189682;28;20686;-75
2023/06/05 06:10:30;;;;;;;4.40;2.00;;;13.00;99.90;;;;;;4186328;28;20664;-75
2023/06/05 06:12:32;;;;;;;4.07;1.90;;;13.10;99.90;;;;;;4187689;28;20237;-75
2023/06/05 06:14:34;;;;;;;4.33;2.10;;;13.10;99.90;;;;;;4185225;28;20226;-76
2023/06/05 06:16:37;;;;;;;2.57;1.60;;;13.20;99.90;;;;;;4189459;28;20210;-75
2023/06/05 06:18:40;;;;;;;3.27;1.90;;;13.20;99.90;;;;;;4194067;28;20237;-75
2023/06/05 06:20:42;;;;;;;4.20;2.03;;;13.40;99.90;;;;;;4193596;28;20310;-75
2023/06/05 06:22:44;;;;;;;4.73;1.70;;;13.40;99.90;;;;;;4196348;28;20267;-75
2023/06/05 06:24:46;;;;;;;3.40;1.90;;;13.40;99.90;;;;;;4196427;28;20758;-75
2023/06/05 06:26:48;;;;;;;2.30;1.60;;;13.50;99.90;;;;;;4196239;28;20257;-75
2023/06/05 06:28:50;;;;;;;2.33;1.63;;;13.60;99.90;;;;;;4196938;28;20293;-74
2023/06/05 06:30:52;;;;;;;2.03;1.57;;;13.60;99.90;;;;;;4196019;28;20205;-75
2023/06/05 06:32:57;;;;;;;3.37;1.50;;;13.70;99.90;;;;;;4196644;28;20572;-74
2023/06/05 06:35:00;;;;;;;3.70;1.63;;;13.70;99.90;;;;;;4196780;28;20206;-75
2023/06/05 06:37:03;;;;;;;2.97;1.50;;;13.80;99.90;;;;;;4195667;28;20316;-75
2023/06/05 06:39:05;;;;;;;3.53;1.63;;;13.80;99.90;;;;;;4195327;28;20610;-75
2023/06/05 06:41:07;;;;;;;3.43;1.43;;;13.90;99.90;;;;;;4194784;28;20209;-75
2023/06/05 06:43:09;;;;;;;2.00;1.30;;;13.90;99.90;;;;;;4195567;28;20663;-76
2023/06/05 06:45:11;;;;;;;7.93;2.00;;;14.00;99.90;;;;;;4193957;28;20685;-74
2023/06/05 06:47:13;;;;;;;2.80;1.70;;;14.10;99.90;;;;;;4196370;28;20239;-75
2023/06/05 06:49:15;;;;;;;3.53;1.60;;;14.20;99.90;;;;;;4197411;28;20305;-75
2023/06/05 06:51:18;;;;;;;3.40;1.90;;;14.30;99.90;;;;;;4197176;28;20874;-76
2023/06/05 06:53:20;;;;;;;3.57;1.50;;;14.40;99.90;;;;;;4196624;28;20276;-75
2023/06/05 06:55:22;;;;;;;2.23;1.60;;;14.40;99.90;;;;;;4196971;28;20206;-75
2023/06/05 06:57:24;;;;;;;2.80;1.50;;;14.80;99.90;;;;;;4190823;28;20307;-76
2023/06/05 06:59:26;;;;;;;2.47;1.87;;;14.60;99.90;;;;;;4190762;28;20293;-76
2023/06/05 07:01:28;;;;;;;2.23;1.60;;;14.60;99.90;;;;;;4193282;28;20286;-76
2023/06/05 07:03:31;;;;;;;2.47;1.60;;;14.70;99.90;;;;;;4193392;28;20595;-76
2023/06/05 07:05:33;;;;;;;2.53;1.63;;;14.80;99.90;;;;;;4194450;28;20249;-75
2023/06/05 07:07:36;;;;;;;2.43;1.37;;;14.90;99.90;;;;;;4188533;28;20216;-74
2023/06/05 07:09:38;;;;;;;2.37;1.80;;;15.00;99.90;;;;;;4195064;28;20310;-71
2023/06/05 07:11:40;;;;;;;2.27;1.60;;;15.10;99.90;;;;;;4196000;28;20733;-76
2023/06/05 07:13:42;;;;;;;3.03;1.90;;;15.10;99.90;;;;;;4195871;28;20281;-75
2023/06/05 07:15:43;;;;;;;2.80;1.50;;;15.30;99.90;;;;;;4192796;28;20296;-75
2023/06/05 07:17:45;;;;;;;2.87;1.83;;;15.40;99.90;;;;;;4196356;28;20223;-75
2023/06/05 07:19:47;;;;;;;4.37;2.07;;;15.40;99.90;;;;;;4195847;28;20316;-75
2023/06/05 07:21:49;;;;;;;4.37;1.93;;;15.50;99.90;;;;;;4194936;28;20216;-75
2023/06/05 07:23:56;;;;;;;2.57;1.77;;;15.60;99.90;;;;;;4191730;28;20645;-75
2023/06/05 07:25:58;;;;;;;3.97;1.97;;;15.70;99.90;;;;;;4193068;28;20217;-75
2023/06/05 07:28:00;;;;;;;4.63;1.70;;;15.80;99.90;;;;;;4193773;28;20350;-75
2023/06/05 07:30:02;;;;;;;4.13;2.00;;;15.90;99.90;;;;;;4194649;28;20237;-75
2023/06/05 07:32:07;;;;;;;4.80;1.70;;;16.00;99.90;;;;;;4193064;28;20269;-75
2023/06/05 07:34:08;;;;;;;3.00;1.70;;;16.00;99.90;;;;;;4198979;28;21051;-75
2023/06/05 07:36:10;;;;;;;3.23;1.70;;;16.10;99.90;;;;;;4198210;28;20201;-75
2023/06/05 07:38:12;;;;;;;2.00;1.20;;;16.20;99.90;;;;;;4195647;28;20279;-75
2023/06/05 07:40:16;;;;;;;1.70;1.40;;;16.30;99.90;;;;;;4195217;28;20668;-75
2023/06/05 07:42:18;;;;;;;2.47;1.43;;;16.40;99.90;;;;;;4194956;28;20233;-75
2023/06/05 07:44:22;;;;;;;2.60;1.70;;;16.50;99.90;;;;;;4192779;28;20205;-75
2023/06/05 07:46:24;;;;;;;2.50;1.53;;;16.50;99.90;;;;;;4192253;28;20253;-75
2023/06/05 07:48:25;;;;;;;2.87;1.60;;;16.60;99.90;;;;;;4194507;28;20248;-75
2023/06/05 07:50:28;;;;;;;2.30;1.60;;;16.70;99.90;;;;;;4195487;28;20296;-75
2023/06/05 07:52:31;;;;;;;2.20;1.50;;;16.80;99.90;;;;;;4194561;28;20233;-75
2023/06/05 07:54:32;;;;;;;2.90;1.60;;;16.90;99.90;;;;;;4194934;28;20206;-75
2023/06/05 07:56:36;;;;;;;3.83;1.73;;;17.00;99.90;;;;;;4195127;28;20205;-75
2023/06/05 07:58:39;;;;;;;1.87;1.40;;;17.10;99.90;;;;;;4195509;28;20202;-75
2023/06/05 08:00:47;;;;;;;2.97;1.53;;;17.20;99.90;;;;;;4193598;28;20210;-75
2023/06/05 08:02:51;;;;;;;3.03;1.63;;;17.30;99.90;;;;;;4193981;28;20233;-75
2023/06/05 08:04:53;;;;;;;2.83;1.20;;;17.40;99.90;;;;;;4195029;28;20550;-75
2023/06/05 08:06:54;;;;;;;1.63;1.30;;;17.50;99.90;;;;;;4195360;28;20324;-75
2023/06/05 08:08:56;;;;;;;2.67;1.30;;;17.70;99.90;;;;;;4190379;28;20442;-75
2023/06/05 08:10:58;;;;;;;3.87;1.60;;;17.80;99.90;;;;;;4194372;28;20221;-75
2023/06/05 08:13:01;;;;;;;1.67;1.27;;;17.90;99.50;;;;;;4193990;28;20238;-75
2023/06/05 08:15:04;;;;;;;2.10;1.47;;;18.10;97.90;;;;;;4188187;28;20212;-75
2023/06/05 08:17:06;;;;;;;1.93;1.30;;;18.20;96.00;;;;;;4194041;28;20232;-75
2023/06/05 08:19:07;;;;;;;3.00;1.50;;;18.40;95.10;;;;;;4193647;28;20217;-75
2023/06/05 08:21:09;;;;;;;4.87;1.47;;;18.60;90.30;;;;;;4194556;28;20233;-75
2023/06/05 08:23:12;;;;;;;2.03;1.30;;;18.80;86.30;;;;;;4195141;28;20613;-75
2023/06/05 08:25:14;;;;;;;3.67;1.80;;;19.00;81.00;;;;;;4194295;28;20611;-75
2023/06/05 08:27:16;;;;;;;2.07;1.40;;;19.20;78.10;;;;;;4192157;28;20299;-75
2023/06/05 08:29:19;;;;;;;3.83;1.70;;;19.50;77.40;;;;;;4189427;28;20306;-75
2023/06/05 08:31:21;;;;;;;4.53;1.50;;;19.70;73.10;;;;;;4194673;28;20222;-75
2023/06/05 08:33:23;;;;;;;3.00;1.40;;;19.90;69.10;;;;;;4190891;28;20229;-75
2023/06/05 08:35:25;;;;;;;2.47;1.27;;;20.10;67.90;;;;;;4191443;28;20669;-75
2023/06/05 08:37:28;;;;;;;3.93;1.40;;;20.40;64.30;;;;;;4193258;28;20209;-75
2023/06/05 08:39:31;;;;;;;3.60;1.57;;;20.60;58.20;;;;;;4193516;28;20201;-74
2023/06/05 08:41:35;;;;;;;4.87;1.40;;;20.90;54.20;;;;;;4192957;28;20931;-75
2023/06/05 08:43:38;;;;;;;4.87;1.90;;;21.10;51.30;;;;;;4193266;28;20785;-75
2023/06/05 08:45:41;;;;;;;2.70;1.53;;;21.40;47.00;;;;;;4193802;28;20202;-75
2023/06/05 08:47:45;;;;;;;2.90;1.27;;;21.60;45.60;;;;;;4193781;28;20268;-75
2023/06/05 08:49:47;;;;;;;2.47;1.20;;;21.80;44.10;;;;;;4191926;28;20583;-75
2023/06/05 08:51:52;;;;;;;1.50;1.20;;;22.00;43.00;;;;;;4191133;28;20220;-76
2023/06/05 08:54:01;;;;;;;2.53;1.40;;;22.10;40.60;;;;;;4189658;28;20209;-74
2023/06/05 08:56:03;;;;;;;2.27;1.43;;;22.30;40.10;;;;;;4190132;28;20256;-75
2023/06/05 08:58:06;;;;;;;1.40;1.10;;;22.40;40.10;;;;;;4194471;28;20247;-75
2023/06/05 09:00:10;;;;;;;3.00;1.20;;;22.50;40.60;;;;;;4192614;28;20783;-75
2023/06/05 09:02:13;;;;;;;2.00;1.47;;;22.50;39.80;;;;;;4191951;28;20230;-75
2023/06/05 09:04:15;;;;;;;2.40;1.33;;;22.50;39.40;;;;;;4192032;28;20680;-75
2023/06/05 09:06:17;;;;;;;2.10;1.40;;;22.60;36.80;;;;;;4192870;28;20257;-75
2023/06/05 09:08:30;;;;;;;2.50;1.20;;;22.60;36.00;;;;;;4193951;28;20251;-76
2023/06/05 09:10:32;;;;;;;1.60;1.20;;;22.60;35.30;;;;;;4192900;28;20726;-75
2023/06/05 09:12:53;;;;;;;3.87;1.50;;;22.60;34.90;;;;;;4192516;28;20315;-76
2023/06/05 09:14:55;;;;;;;3.87;1.30;;;22.70;34.50;;;;;;4194570;28;20268;-75
2023/06/05 09:16:58;;;;;;;2.00;1.07;;;22.70;33.20;;;;;;4197047;28;20227;-75
2023/06/05 09:19:01;;;;;;;1.97;1.10;;;22.70;32.50;;;;;;4195553;28;20334;-76
2023/06/05 09:21:12;;;;;;;2.57;1.50;;;22.80;32.10;;;;;;4196981;28;20200;-75
2023/06/05 09:23:26;;;;;;;5.13;1.60;;;22.80;32.30;;;;;;4200917;28;20329;-75
2023/06/05 09:25:44;;;;;;;3.23;1.50;;;22.90;31.70;;;;;;4200348;28;20203;-76
2023/06/05 09:28:05;;;;;;;2.83;1.43;;;23.00;31.60;;;;;;4196733;28;20289;-75
2023/06/05 09:30:08;;;;;;;1.90;1.37;;;23.10;31.30;;;;;;4194260;28;20370;-76
2023/06/05 09:32:17;;;;;;;3.23;1.50;;;23.20;31.80;;;;;;4192454;28;20854;-76
2023/06/05 09:34:24;;;;;;;4.37;1.43;;;23.30;31.70;;;;;;4195848;28;20236;-76
2023/06/05 09:36:27;;;;;;;1.70;1.30;;;23.50;31.00;;;;;;4194903;28;20211;-75
2023/06/05 09:38:29;;;;;;;3.37;1.20;;;23.50;30.90;;;;;;4195839;28;20216;-75
2023/06/05 09:40:41;;;;;;;5.63;1.40;;;23.60;30.80;;;;;;4192545;28;20197;-75
2023/06/05 09:42:42;;;;;;;1.93;1.50;;;23.80;30.90;;;;;;4195729;28;20782;-75
2023/06/05 09:44:59;;;;;;;2.27;1.40;;;23.90;30.50;;;;;;4196010;28;20248;-75
2023/06/05 09:47:05;;;;;;;2.77;1.30;;;24.00;30.30;;;;;;4195200;28;20249;-75
2023/06/05 09:49:09;;;;;;;1.93;1.37;;;24.10;30.10;;;;;;4194946;28;20585;-75
2023/06/05 09:51:14;;;;;;;2.53;1.43;;;24.30;30.30;;;;;;4192371;28;20217;-75
2023/06/05 09:53:17;;;;;;;2.83;1.40;;;24.40;30.00;;;;;;4191506;28;20321;-75
2023/06/05 09:55:19;;;;;;;2.50;1.50;;;24.50;29.70;;;;;;4194306;28;20813;-76
2023/06/05 09:57:22;;;;;;;4.00;1.23;;;24.60;29.60;;;;;;4194846;28;20205;-75
2023/06/05 09:59:28;;;;;;;2.43;1.40;;;24.70;29.30;;;;;;4195965;28;20308;-76
2023/06/05 10:01:30;;;;;;;3.73;1.57;;;24.80;29.10;;;;;;4195268;28;20865;-76
2023/06/05 10:03:35;;;;;;;2.43;1.40;;;25.00;28.60;;;;;;4192053;28;20233;-75
2023/06/05 10:05:39;;;;;;;2.30;1.40;;;25.10;28.30;;;;;;4192933;28;20651;-78
2023/06/05 10:07:43;;;;;;;2.07;1.40;;;25.30;28.30;;;;;;4196415;28;20251;-76
2023/06/05 10:09:45;;;;;;;2.50;1.37;;;25.40;27.90;;;;;;4195326;28;20837;-76
2023/06/05 10:11:51;;;;;;;3.27;1.40;;;25.60;27.80;;;;;;4192854;28;20260;-76
2023/06/05 10:13:54;;;;;;;2.57;1.50;;;25.70;27.40;;;;;;4193497;28;20269;-76
2023/06/05 10:15:57;;;;;;;2.43;1.63;;;25.90;27.10;;;;;;4194006;28;20587;-76
2023/06/05 10:17:59;;;;;;;2.93;1.60;;;26.00;27.00;;;;;;4193581;28;20300;-76
2023/06/05 10:20:03;;;;;;;2.87;1.70;;;26.10;26.10;;;;;;4193944;28;20960;-75
2023/06/05 10:22:05;;;;;;;3.17;1.60;;;26.10;25.60;;;;;;4195018;28;20217;-76
2023/06/05 10:24:12;;;;;;;2.90;1.50;;;26.10;25.40;;;;;;4196278;28;20202;-75
2023/06/05 10:26:32;;;;;;;2.40;1.47;;;26.10;25.60;;;;;;4195129;28;20234;-77
2023/06/05 10:28:46;;;;;;;1.93;1.23;;;26.20;25.70;;;;;;4193745;28;20659;-78
2023/06/05 10:31:18;;;;;;;2.77;1.70;;;26.30;25.40;;;;;;4191994;28;20245;-78
2023/06/05 10:33:32;;;;;;;2.17;1.67;;;26.40;25.00;;;;;;4195843;28;20316;-75
2023/06/05 10:35:46;;;;;;;2.37;1.70;;;26.50;25.20;;;;;;4195026;28;20635;-74
2023/06/05 10:38:09;;;;;;;2.30;1.13;;;26.70;25.00;;;;;;4195749;28;20292;-75
2023/06/05 10:40:12;;;;;;;2.30;1.30;;;27.00;25.30;;;;;;4196058;28;20210;-75
2023/06/05 10:42:23;;;;;;;2.70;1.20;;;27.20;25.00;;;;;;4197150;28;20858;-74
2023/06/05 10:44:40;;;;;;;2.47;1.37;;;27.50;24.60;;;;;;4197681;28;20300;-76